LPPTLPCS

Guest
Details From LPPT - Lisboa
To LPCS - CASCAIS
Flight Number -
Tags generated
Created
Modified
Stats Distance 11 nm / 20 km
Max Altitude 0 ft / 0 m
Waypoints 2
Social Downloads 3
Likes 0
Share

Download

Looking for another format? Having issues loading an existing format? Contact us
Advertisement - Login to hide

Notes

Basic altitude profile: - Ascent Rate: 2500ft/min - Ascent Speed: 250kts - Cruise Altitude: 35000ft - Cruise Speed: 420kts - Descent Rate: 1500ft/min - Descent Speed: 250kts Options: - Use NATs: yes - Use PACOTS: yes - Use low airways: yes - Use high airways: no

Route

LPPT LPCS

ID Type Via Altitude (ft/m) Position (lat/lon) Dist (leg/tot) Name
O LPPT APT - 0 / 0 38.77856 / -9.13515 - / 0 nm Lisboa
O LPCS APT - 0 / 0 38.72518 / -9.35526 10 / 10 nm CASCAIS

Altitude Profile

Advertisement - Login to hide

LPPT

Details ICAO LPPT (LIS)
Name Lisbon Humberto Delgado
Region Portugal
Timezone Europe/Lisbon (UTC+1.0)
Stats Elevation 374 ft / 114 m (AMSL)
Location 38.778800° -9.135190°
Runways 2
Magnetic Variation 2.008° W

METAR

LPPT 241200Z 22012KT 9999 FEW024 BKN045 18/13 Q1027

Decode

TAF

TAF TAF LPPT 241100Z 2412/2518 22010KT 9999 BKN045 PROB40 TEMPO 2500/2506 6000 -RA SCT008 BKN015 BECMG 2506/2509 24015KT 8000 -RA SCT008 BKN030 TEMPO 2509/2512 5000 RA SCT004 BKN012 BECMG 2512/2514 29012KT 9999 NSW SCT045

Decode

Departure Runways

ID Width Length Bearing (true/mag) Surface Threshold Overrun Markings Lighting
03 148 ft / 45 m 12,505 ft / 3,812 m 22.65° / 24.65° ASPHALT 302 ft / 92 m 0 ft / 0 m PREC-APP CENTERLINE EDGE THRESHOLD ALSF-II TDZ REIL-OMNI
17 148 ft / 45 m 7,612 ft / 2,320 m 168.14° / 170.15° ASPHALT 0 ft / 0 m 0 ft / 0 m PREC-APP CENTERLINE EDGE THRESHOLD REIL-OMNI
21 148 ft / 45 m 12,505 ft / 3,812 m 202.66° / 204.67° ASPHALT 1,965 ft / 599 m 0 ft / 0 m PREC-APP CENTERLINE EDGE THRESHOLD ALSF-II TDZ REIL-OMNI
35 148 ft / 45 m 7,612 ft / 2,320 m 348.14° / 350.15° ASPHALT 194 ft / 59 m 299 ft / 91 m PREC-APP CENTERLINE EDGE THRESHOLD ALSF-I REIL-OMNI

LPCS

Details ICAO LPCS (CAT)
Name Cascais
Region Portugal
Timezone Europe/Lisbon (UTC+1.0)
Stats Elevation 326 ft / 99 m (AMSL)
Location 38.725100° -9.355190°
Runways 1
Magnetic Variation 2.078° W

METAR

LPCS 241200Z 17009KT 9999 FEW017 BKN027 17/14 Q1027

Decode

TAF

Not found

Destination Runways

ID Width Length Bearing (true/mag) Surface Threshold Overrun Markings Lighting
17 97 ft / 30 m 5,519 ft / 1,682 m 164.13° / 166.21° CONCRETE 1,083 ft / 330 m 0 ft / 0 m APP EDGE THRESHOLD
35 97 ft / 30 m 5,519 ft / 1,682 m 344.13° / 346.21° CONCRETE 459 ft / 140 m 0 ft / 0 m APP EDGE THRESHOLD

Popular Alternatives